sensor_id;sensor_type;location;lat;lon;timestamp;temperature;humidity
12849;DHT22;6493;50.928;7.172;2023-03-31T00:04:58;8.60;57.00
12849;DHT22;6493;50.928;7.172;2023-03-31T00:10:04;8.60;56.80
12849;DHT22;6493;50.928;7.172;2023-03-31T00:15:19;8.60;57.10
12849;DHT22;6493;50.928;7.172;2023-03-31T00:20:23;8.60;57.00
12849;DHT22;6493;50.928;7.172;2023-03-31T00:25:28;8.60;57.30
12849;DHT22;6493;50.928;7.172;2023-03-31T00:30:32;8.60;57.30
12849;DHT22;6493;50.928;7.172;2023-03-31T00:35:35;8.50;57.20
12849;DHT22;6493;50.928;7.172;2023-03-31T00:40:45;8.50;57.40
12849;DHT22;6493;50.928;7.172;2023-03-31T00:45:49;8.50;57.50
12849;DHT22;6493;50.928;7.172;2023-03-31T00:50:56;8.50;57.50
12849;DHT22;6493;50.928;7.172;2023-03-31T00:56:06;8.50;57.50
12849;DHT22;6493;50.928;7.172;2023-03-31T01:01:15;8.40;57.90
12849;DHT22;6493;50.928;7.172;2023-03-31T01:06:20;8.40;57.80
12849;DHT22;6493;50.928;7.172;2023-03-31T01:11:27;8.40;57.90
12849;DHT22;6493;50.928;7.172;2023-03-31T01:16:32;8.30;58.10
12849;DHT22;6493;50.928;7.172;2023-03-31T01:27:36;8.20;58.40
12849;DHT22;6493;50.928;7.172;2023-03-31T01:33:08;8.10;58.60
12849;DHT22;6493;50.928;7.172;2023-03-31T01:38:38;8.10;58.60
12849;DHT22;6493;50.928;7.172;2023-03-31T01:43:54;8.00;58.70
12849;DHT22;6493;50.928;7.172;2023-03-31T01:49:09;8.00;59.00
12849;DHT22;6493;50.928;7.172;2023-03-31T01:54:21;8.00;59.00
12849;DHT22;6493;50.928;7.172;2023-03-31T01:59:34;8.00;59.10
12849;DHT22;6493;50.928;7.172;2023-03-31T02:04:43;7.90;59.90
12849;DHT22;6493;50.928;7.172;2023-03-31T02:09:52;7.90;59.20
12849;DHT22;6493;50.928;7.172;2023-03-31T02:15:01;7.90;59.50
12849;DHT22;6493;50.928;7.172;2023-03-31T02:20:08;7.90;59.40
12849;DHT22;6493;50.928;7.172;2023-03-31T02:25:16;7.90;59.20
12849;DHT22;6493;50.928;7.172;2023-03-31T02:30:25;7.90;59.30
12849;DHT22;6493;50.928;7.172;2023-03-31T02:35:32;7.90;59.60
12849;DHT22;6493;50.928;7.172;2023-03-31T02:40:38;7.90;59.40
12849;DHT22;6493;50.928;7.172;2023-03-31T02:45:47;7.90;59.40
12849;DHT22;6493;50.928;7.172;2023-03-31T02:51:12;7.90;59.40
12849;DHT22;6493;50.928;7.172;2023-03-31T02:56:34;7.90;59.70
12849;DHT22;6493;50.928;7.172;2023-03-31T03:01:52;7.90;59.50
12849;DHT22;6493;50.928;7.172;2023-03-31T03:07:09;7.90;59.60
12849;DHT22;6493;50.928;7.172;2023-03-31T03:12:20;7.90;59.50
12849;DHT22;6493;50.928;7.172;2023-03-31T03:17:32;7.90;59.60
12849;DHT22;6493;50.928;7.172;2023-03-31T03:22:38;7.90;59.50
12849;DHT22;6493;50.928;7.172;2023-03-31T03:27:42;7.90;60.00
12849;DHT22;6493;50.928;7.172;2023-03-31T03:32:47;7.80;60.00
12849;DHT22;6493;50.928;7.172;2023-03-31T03:37:51;7.80;60.20
12849;DHT22;6493;50.928;7.172;2023-03-31T03:42:55;7.80;60.90
12849;DHT22;6493;50.928;7.172;2023-03-31T03:48:00;7.70;60.80
12849;DHT22;6493;50.928;7.172;2023-03-31T03:53:04;7.70;61.90
12849;DHT22;6493;50.928;7.172;2023-03-31T03:58:07;7.60;61.70
12849;DHT22;6493;50.928;7.172;2023-03-31T04:03:12;7.60;61.90
12849;DHT22;6493;50.928;7.172;2023-03-31T04:08:18;7.60;62.10
12849;DHT22;6493;50.928;7.172;2023-03-31T04:13:22;7.50;62.00
12849;DHT22;6493;50.928;7.172;2023-03-31T04:18:27;7.50;62.40
12849;DHT22;6493;50.928;7.172;2023-03-31T04:23:30;7.40;62.70
12849;DHT22;6493;50.928;7.172;2023-03-31T04:28:35;7.40;62.50
12849;DHT22;6493;50.928;7.172;2023-03-31T04:33:40;7.40;62.70
12849;DHT22;6493;50.928;7.172;2023-03-31T04:38:49;7.40;63.00
12849;DHT22;6493;50.928;7.172;2023-03-31T04:43:56;7.40;63.20
12849;DHT22;6493;50.928;7.172;2023-03-31T04:49:01;7.40;63.20
12849;DHT22;6493;50.928;7.172;2023-03-31T04:54:04;7.30;64.30
12849;DHT22;6493;50.928;7.172;2023-03-31T04:59:08;7.20;63.80
12849;DHT22;6493;50.928;7.172;2023-03-31T05:04:13;7.20;64.00
12849;DHT22;6493;50.928;7.172;2023-03-31T05:09:17;7.20;64.00
12849;DHT22;6493;50.928;7.172;2023-03-31T05:14:22;7.10;64.20
12849;DHT22;6493;50.928;7.172;2023-03-31T05:19:27;7.10;63.60
12849;DHT22;6493;50.928;7.172;2023-03-31T05:24:30;7.10;63.60
12849;DHT22;6493;50.928;7.172;2023-03-31T05:29:34;7.00;64.00
12849;DHT22;6493;50.928;7.172;2023-03-31T05:34:39;7.00;63.80
12849;DHT22;6493;50.928;7.172;2023-03-31T05:39:44;7.00;63.60
12849;DHT22;6493;50.928;7.172;2023-03-31T05:44:48;7.00;64.10
12849;DHT22;6493;50.928;7.172;2023-03-31T05:49:53;7.00;63.70
12849;DHT22;6493;50.928;7.172;2023-03-31T05:54:57;7.00;64.10
12849;DHT22;6493;50.928;7.172;2023-03-31T06:00:00;7.00;64.10
12849;DHT22;6493;50.928;7.172;2023-03-31T06:05:07;7.00;63.90
12849;DHT22;6493;50.928;7.172;2023-03-31T06:10:11;7.00;63.80
12849;DHT22;6493;50.928;7.172;2023-03-31T06:15:14;7.10;63.40
12849;DHT22;6493;50.928;7.172;2023-03-31T06:20:19;7.10;63.30
12849;DHT22;6493;50.928;7.172;2023-03-31T06:25:29;7.10;63.20
12849;DHT22;6493;50.928;7.172;2023-03-31T06:30:59;7.10;62.70
12849;DHT22;6493;50.928;7.172;2023-03-31T06:36:05;7.10;62.90
12849;DHT22;6493;50.928;7.172;2023-03-31T06:41:11;7.10;62.60
12849;DHT22;6493;50.928;7.172;2023-03-31T06:46:15;7.10;62.70
12849;DHT22;6493;50.928;7.172;2023-03-31T06:51:20;7.20;62.80
12849;DHT22;6493;50.928;7.172;2023-03-31T06:56:24;7.20;62.40
12849;DHT22;6493;50.928;7.172;2023-03-31T07:01:28;7.20;62.50
12849;DHT22;6493;50.928;7.172;2023-03-31T07:06:34;7.20;62.30
12849;DHT22;6493;50.928;7.172;2023-03-31T07:11:38;7.20;62.20
12849;DHT22;6493;50.928;7.172;2023-03-31T07:16:42;7.20;62.20
12849;DHT22;6493;50.928;7.172;2023-03-31T07:21:47;7.30;62.30
12849;DHT22;6493;50.928;7.172;2023-03-31T07:26:50;7.30;62.30
12849;DHT22;6493;50.928;7.172;2023-03-31T07:31:54;7.40;62.40
12849;DHT22;6493;50.928;7.172;2023-03-31T07:36:59;7.50;62.60
12849;DHT22;6493;50.928;7.172;2023-03-31T07:42:03;7.50;62.60
12849;DHT22;6493;50.928;7.172;2023-03-31T07:47:07;7.60;62.80
12849;DHT22;6493;50.928;7.172;2023-03-31T07:52:12;7.70;62.90
12849;DHT22;6493;50.928;7.172;2023-03-31T07:57:16;7.80;63.20
12849;DHT22;6493;50.928;7.172;2023-03-31T08:02:20;8.00;63.70
12849;DHT22;6493;50.928;7.172;2023-03-31T08:07:26;8.40;63.90
12849;DHT22;6493;50.928;7.172;2023-03-31T08:12:32;8.60;63.40
12849;DHT22;6493;50.928;7.172;2023-03-31T08:17:35;8.80;62.60
12849;DHT22;6493;50.928;7.172;2023-03-31T08:22:40;9.00;62.60
12849;DHT22;6493;50.928;7.172;2023-03-31T08:27:44;9.10;62.30
12849;DHT22;6493;50.928;7.172;2023-03-31T08:32:50;9.20;62.10
12849;DHT22;6493;50.928;7.172;2023-03-31T08:37:55;9.30;62.30
12849;DHT22;6493;50.928;7.172;2023-03-31T08:43:01;9.40;62.00
12849;DHT22;6493;50.928;7.172;2023-03-31T08:48:16;9.60;61.90
12849;DHT22;6493;50.928;7.172;2023-03-31T08:53:31;9.70;61.30
12849;DHT22;6493;50.928;7.172;2023-03-31T08:58:39;9.70;61.30
12849;DHT22;6493;50.928;7.172;2023-03-31T09:03:49;9.70;60.90
12849;DHT22;6493;50.928;7.172;2023-03-31T09:09:02;9.80;61.30
12849;DHT22;6493;50.928;7.172;2023-03-31T09:14:17;10.10;61.60
12849;DHT22;6493;50.928;7.172;2023-03-31T09:19:32;10.30;61.40
12849;DHT22;6493;50.928;7.172;2023-03-31T09:24:49;10.50;59.60
12849;DHT22;6493;50.928;7.172;2023-03-31T09:29:57;10.60;60.40
12849;DHT22;6493;50.928;7.172;2023-03-31T09:35:14;10.70;59.50
12849;DHT22;6493;50.928;7.172;2023-03-31T09:40:22;10.80;59.70
12849;DHT22;6493;50.928;7.172;2023-03-31T09:45:26;11.00;60.60
12849;DHT22;6493;50.928;7.172;2023-03-31T09:50:43;11.20;59.70
12849;DHT22;6493;50.928;7.172;2023-03-31T09:55:52;11.30;59.30
12849;DHT22;6493;50.928;7.172;2023-03-31T10:01:00;11.30;59.50
12849;DHT22;6493;50.928;7.172;2023-03-31T10:06:08;11.30;59.10
12849;DHT22;6493;50.928;7.172;2023-03-31T10:11:14;11.20;59.40
12849;DHT22;6493;50.928;7.172;2023-03-31T10:16:22;11.10;59.60
12849;DHT22;6493;50.928;7.172;2023-03-31T10:21:27;11.10;60.10
12849;DHT22;6493;50.928;7.172;2023-03-31T10:26:39;11.10;60.00
12849;DHT22;6493;50.928;7.172;2023-03-31T10:31:43;11.00;59.80
12849;DHT22;6493;50.928;7.172;2023-03-31T10:36:49;10.90;59.50
12849;DHT22;6493;50.928;7.172;2023-03-31T10:41:55;10.80;59.30
12849;DHT22;6493;50.928;7.172;2023-03-31T10:47:04;10.70;59.60
12849;DHT22;6493;50.928;7.172;2023-03-31T10:52:17;10.70;60.40
12849;DHT22;6493;50.928;7.172;2023-03-31T10:57:31;10.70;60.90
12849;DHT22;6493;50.928;7.172;2023-03-31T11:08:29;10.90;60.10
12849;DHT22;6493;50.928;7.172;2023-03-31T11:13:41;10.90;58.80
12849;DHT22;6493;50.928;7.172;2023-03-31T11:19:00;10.90;58.40
12849;DHT22;6493;50.928;7.172;2023-03-31T11:24:17;10.90;58.60
12849;DHT22;6493;50.928;7.172;2023-03-31T11:29:32;10.80;58.10
12849;DHT22;6493;50.928;7.172;2023-03-31T11:34:50;10.70;57.10
12849;DHT22;6493;50.928;7.172;2023-03-31T11:45:33;10.60;57.80
12849;DHT22;6493;50.928;7.172;2023-03-31T11:50:38;10.60;58.00
12849;DHT22;6493;50.928;7.172;2023-03-31T11:55:45;10.70;58.40
12849;DHT22;6493;50.928;7.172;2023-03-31T12:00:55;10.80;58.50
12849;DHT22;6493;50.928;7.172;2023-03-31T12:06:02;10.80;57.80
12849;DHT22;6493;50.928;7.172;2023-03-31T12:11:15;10.90;57.90
12849;DHT22;6493;50.928;7.172;2023-03-31T12:16:25;11.00;58.20
12849;DHT22;6493;50.928;7.172;2023-03-31T12:21:31;11.00;57.90
12849;DHT22;6493;50.928;7.172;2023-03-31T12:26:42;11.10;57.90
12849;DHT22;6493;50.928;7.172;2023-03-31T12:31:52;11.10;57.60
12849;DHT22;6493;50.928;7.172;2023-03-31T12:37:13;11.10;56.70
12849;DHT22;6493;50.928;7.172;2023-03-31T12:48:25;11.10;56.40
12849;DHT22;6493;50.928;7.172;2023-03-31T12:53:38;11.10;56.80
12849;DHT22;6493;50.928;7.172;2023-03-31T12:58:46;11.20;57.30
12849;DHT22;6493;50.928;7.172;2023-03-31T13:04:07;11.20;57.20
12849;DHT22;6493;50.928;7.172;2023-03-31T13:14:56;11.30;56.30
12849;DHT22;6493;50.928;7.172;2023-03-31T13:20:31;11.30;56.60
12849;DHT22;6493;50.928;7.172;2023-03-31T13:25:42;11.30;57.00
12849;DHT22;6493;50.928;7.172;2023-03-31T13:30:54;11.30;57.00
12849;DHT22;6493;50.928;7.172;2023-03-31T13:36:25;11.20;57.10
12849;DHT22;6493;50.928;7.172;2023-03-31T13:41:42;11.00;57.20
12849;DHT22;6493;50.928;7.172;2023-03-31T13:52:38;10.50;58.20
12849;DHT22;6493;50.928;7.172;2023-03-31T14:03:51;10.30;58.30
12849;DHT22;6493;50.928;7.172;2023-03-31T14:09:03;10.30;58.50
12849;DHT22;6493;50.928;7.172;2023-03-31T14:14:11;10.30;58.40
12849;DHT22;6493;50.928;7.172;2023-03-31T14:24:50;10.30;58.70
12849;DHT22;6493;50.928;7.172;2023-03-31T14:30:01;10.30;58.80
12849;DHT22;6493;50.928;7.172;2023-03-31T14:35:23;10.40;58.90
12849;DHT22;6493;50.928;7.172;2023-03-31T14:40:31;10.40;59.00
12849;DHT22;6493;50.928;7.172;2023-03-31T14:45:35;10.40;58.60
12849;DHT22;6493;50.928;7.172;2023-03-31T14:50:42;10.50;58.50
12849;DHT22;6493;50.928;7.172;2023-03-31T14:55:47;10.50;58.20
12849;DHT22;6493;50.928;7.172;2023-03-31T15:01:01;10.50;57.80
12849;DHT22;6493;50.928;7.172;2023-03-31T15:06:08;10.60;58.00
12849;DHT22;6493;50.928;7.172;2023-03-31T15:11:16;10.60;57.90
12849;DHT22;6493;50.928;7.172;2023-03-31T15:16:35;10.60;57.30
12849;DHT22;6493;50.928;7.172;2023-03-31T15:21:43;10.60;57.10
12849;DHT22;6493;50.928;7.172;2023-03-31T15:26:51;10.60;56.80
12849;DHT22;6493;50.928;7.172;2023-03-31T15:31:58;10.60;56.70
12849;DHT22;6493;50.928;7.172;2023-03-31T15:37:06;10.60;56.60
12849;DHT22;6493;50.928;7.172;2023-03-31T15:42:11;10.50;56.00
12849;DHT22;6493;50.928;7.172;2023-03-31T15:47:17;10.50;56.20
12849;DHT22;6493;50.928;7.172;2023-03-31T15:52:26;10.50;56.10
12849;DHT22;6493;50.928;7.172;2023-03-31T15:57:34;10.40;56.30
12849;DHT22;6493;50.928;7.172;2023-03-31T16:02:41;10.40;56.00
12849;DHT22;6493;50.928;7.172;2023-03-31T16:07:45;10.40;55.90
12849;DHT22;6493;50.928;7.172;2023-03-31T16:12:53;10.30;56.10
12849;DHT22;6493;50.928;7.172;2023-03-31T16:18:02;10.30;56.50
12849;DHT22;6493;50.928;7.172;2023-03-31T16:23:13;10.30;56.70
12849;DHT22;6493;50.928;7.172;2023-03-31T16:28:22;10.20;56.60
12849;DHT22;6493;50.928;7.172;2023-03-31T16:33:28;10.20;56.80
12849;DHT22;6493;50.928;7.172;2023-03-31T16:38:34;10.10;56.80
12849;DHT22;6493;50.928;7.172;2023-03-31T16:43:38;10.00;56.80
12849;DHT22;6493;50.928;7.172;2023-03-31T16:48:42;9.90;57.00
12849;DHT22;6493;50.928;7.172;2023-03-31T16:53:46;9.80;57.00
12849;DHT22;6493;50.928;7.172;2023-03-31T16:58:51;9.70;57.00
12849;DHT22;6493;50.928;7.172;2023-03-31T17:03:55;9.70;57.10
12849;DHT22;6493;50.928;7.172;2023-03-31T17:08:59;9.60;57.10
12849;DHT22;6493;50.928;7.172;2023-03-31T17:14:04;9.60;57.20
12849;DHT22;6493;50.928;7.172;2023-03-31T17:19:07;9.50;57.10
12849;DHT22;6493;50.928;7.172;2023-03-31T17:24:11;9.50;57.10
12849;DHT22;6493;50.928;7.172;2023-03-31T17:29:16;9.50;57.10
12849;DHT22;6493;50.928;7.172;2023-03-31T17:34:20;9.50;57.00
12849;DHT22;6493;50.928;7.172;2023-03-31T17:39:23;9.40;57.00
12849;DHT22;6493;50.928;7.172;2023-03-31T17:44:30;9.40;57.00
12849;DHT22;6493;50.928;7.172;2023-03-31T17:49:34;9.40;56.80
12849;DHT22;6493;50.928;7.172;2023-03-31T17:54:37;9.40;56.90
12849;DHT22;6493;50.928;7.172;2023-03-31T17:59:42;9.40;56.60
12849;DHT22;6493;50.928;7.172;2023-03-31T18:04:46;9.40;56.60
12849;DHT22;6493;50.928;7.172;2023-03-31T18:09:50;9.30;56.50
12849;DHT22;6493;50.928;7.172;2023-03-31T18:14:55;9.40;56.80
12849;DHT22;6493;50.928;7.172;2023-03-31T18:19:59;9.30;56.70
12849;DHT22;6493;50.928;7.172;2023-03-31T18:25:03;9.30;56.40
12849;DHT22;6493;50.928;7.172;2023-03-31T18:30:09;9.30;56.30
12849;DHT22;6493;50.928;7.172;2023-03-31T18:35:13;9.30;56.50
12849;DHT22;6493;50.928;7.172;2023-03-31T18:40:18;9.20;56.40
12849;DHT22;6493;50.928;7.172;2023-03-31T18:45:23;9.20;56.40
12849;DHT22;6493;50.928;7.172;2023-03-31T18:50:29;9.20;56.50
12849;DHT22;6493;50.928;7.172;2023-03-31T18:55:32;9.20;56.60
12849;DHT22;6493;50.928;7.172;2023-03-31T19:00:39;9.10;56.50
12849;DHT22;6493;50.928;7.172;2023-03-31T19:05:43;9.10;56.60
12849;DHT22;6493;50.928;7.172;2023-03-31T19:10:47;9.10;56.60
12849;DHT22;6493;50.928;7.172;2023-03-31T19:15:52;9.00;56.50
12849;DHT22;6493;50.928;7.172;2023-03-31T19:20:57;9.00;56.60
12849;DHT22;6493;50.928;7.172;2023-03-31T19:26:01;9.00;56.60
12849;DHT22;6493;50.928;7.172;2023-03-31T19:31:06;9.00;56.50
12849;DHT22;6493;50.928;7.172;2023-03-31T19:36:10;9.00;56.60
12849;DHT22;6493;50.928;7.172;2023-03-31T19:41:15;8.90;56.60
12849;DHT22;6493;50.928;7.172;2023-03-31T19:46:20;8.90;56.70
12849;DHT22;6493;50.928;7.172;2023-03-31T19:51:24;8.80;57.30
12849;DHT22;6493;50.928;7.172;2023-03-31T19:56:28;8.70;56.80
12849;DHT22;6493;50.928;7.172;2023-03-31T20:01:34;8.60;56.70
12849;DHT22;6493;50.928;7.172;2023-03-31T20:06:38;8.50;56.80
12849;DHT22;6493;50.928;7.172;2023-03-31T20:11:42;8.50;57.00
12849;DHT22;6493;50.928;7.172;2023-03-31T20:16:48;8.40;56.80
12849;DHT22;6493;50.928;7.172;2023-03-31T20:21:52;8.30;56.90
12849;DHT22;6493;50.928;7.172;2023-03-31T20:26:57;8.30;57.00
12849;DHT22;6493;50.928;7.172;2023-03-31T20:32:02;8.20;57.20
12849;DHT22;6493;50.928;7.172;2023-03-31T20:37:06;8.20;57.20
12849;DHT22;6493;50.928;7.172;2023-03-31T20:42:10;8.20;57.20
12849;DHT22;6493;50.928;7.172;2023-03-31T20:47:16;8.10;57.20
12849;DHT22;6493;50.928;7.172;2023-03-31T20:52:19;8.10;57.60
12849;DHT22;6493;50.928;7.172;2023-03-31T20:57:24;8.10;57.70
12849;DHT22;6493;50.928;7.172;2023-03-31T21:02:29;8.00;57.60
12849;DHT22;6493;50.928;7.172;2023-03-31T21:07:33;8.00;57.80
12849;DHT22;6493;50.928;7.172;2023-03-31T21:12:37;8.00;57.60
12849;DHT22;6493;50.928;7.172;2023-03-31T21:17:43;8.00;57.80
12849;DHT22;6493;50.928;7.172;2023-03-31T21:22:47;7.90;57.80
12849;DHT22;6493;50.928;7.172;2023-03-31T21:27:51;7.90;57.60
12849;DHT22;6493;50.928;7.172;2023-03-31T21:32:56;7.90;58.20
12849;DHT22;6493;50.928;7.172;2023-03-31T21:37:59;7.90;57.80
12849;DHT22;6493;50.928;7.172;2023-03-31T21:43:04;7.90;57.90
12849;DHT22;6493;50.928;7.172;2023-03-31T21:48:10;7.90;57.80
12849;DHT22;6493;50.928;7.172;2023-03-31T21:53:15;7.90;58.20
12849;DHT22;6493;50.928;7.172;2023-03-31T21:58:20;7.90;58.30
12849;DHT22;6493;50.928;7.172;2023-03-31T22:03:25;7.80;58.10
12849;DHT22;6493;50.928;7.172;2023-03-31T22:08:30;7.70;58.00
12849;DHT22;6493;50.928;7.172;2023-03-31T22:13:34;7.70;58.00
12849;DHT22;6493;50.928;7.172;2023-03-31T22:18:40;7.70;58.00
12849;DHT22;6493;50.928;7.172;2023-03-31T22:23:44;7.70;58.00
12849;DHT22;6493;50.928;7.172;2023-03-31T22:28:48;7.70;58.00
12849;DHT22;6493;50.928;7.172;2023-03-31T22:33:53;7.70;58.00
12849;DHT22;6493;50.928;7.172;2023-03-31T22:38:57;7.70;58.00
12849;DHT22;6493;50.928;7.172;2023-03-31T22:44:00;7.70;58.20
12849;DHT22;6493;50.928;7.172;2023-03-31T22:49:05;7.60;58.10
12849;DHT22;6493;50.928;7.172;2023-03-31T22:54:11;7.60;58.10
12849;DHT22;6493;50.928;7.172;2023-03-31T22:59:16;7.60;58.10
12849;DHT22;6493;50.928;7.172;2023-03-31T23:04:21;7.60;58.10
12849;DHT22;6493;50.928;7.172;2023-03-31T23:09:25;7.60;58.30
12849;DHT22;6493;50.928;7.172;2023-03-31T23:14:29;7.60;58.70
12849;DHT22;6493;50.928;7.172;2023-03-31T23:19:34;7.50;58.60
12849;DHT22;6493;50.928;7.172;2023-03-31T23:24:39;7.50;58.60
12849;DHT22;6493;50.928;7.172;2023-03-31T23:29:42;7.40;58.80
12849;DHT22;6493;50.928;7.172;2023-03-31T23:34:48;7.30;58.90
12849;DHT22;6493;50.928;7.172;2023-03-31T23:39:52;7.30;58.70
12849;DHT22;6493;50.928;7.172;2023-03-31T23:44:55;7.20;58.90
12849;DHT22;6493;50.928;7.172;2023-03-31T23:50:00;7.20;59.20
12849;DHT22;6493;50.928;7.172;2023-03-31T23:55:04;7.20;59.50
